sensor_id;sensor_type;location;lat;lon;timestamp;P1;durP1;ratioP1;P2;durP2;ratioP2
32876;SDS011;19226;51.600;8.034;2023-02-15T00:02:02;19.77;;;10.10;;
32876;SDS011;19226;51.600;8.034;2023-02-15T00:04:49;15.07;;;9.10;;
32876;SDS011;19226;51.600;8.034;2023-02-15T00:07:34;18.30;;;9.50;;
32876;SDS011;19226;51.600;8.034;2023-02-15T00:10:19;19.58;;;9.93;;
32876;SDS011;19226;51.600;8.034;2023-02-15T00:13:03;15.32;;;10.18;;
32876;SDS011;19226;51.600;8.034;2023-02-15T00:15:48;14.45;;;9.80;;
32876;SDS011;19226;51.600;8.034;2023-02-15T00:18:32;16.65;;;9.68;;
32876;SDS011;19226;51.600;8.034;2023-02-15T00:21:17;15.30;;;9.15;;
32876;SDS011;19226;51.600;8.034;2023-02-15T00:24:02;15.55;;;10.05;;
32876;SDS011;19226;51.600;8.034;2023-02-15T00:26:48;18.50;;;9.48;;
32876;SDS011;19226;51.600;8.034;2023-02-15T00:29:33;15.65;;;9.35;;
32876;SDS011;19226;51.600;8.034;2023-02-15T00:32:18;18.38;;;9.95;;
32876;SDS011;19226;51.600;8.034;2023-02-15T00:35:02;20.13;;;9.35;;
32876;SDS011;19226;51.600;8.034;2023-02-15T00:37:47;17.35;;;10.07;;
32876;SDS011;19226;51.600;8.034;2023-02-15T00:40:32;14.40;;;9.48;;
32876;SDS011;19226;51.600;8.034;2023-02-15T00:43:17;17.23;;;10.18;;
32876;SDS011;19226;51.600;8.034;2023-02-15T00:46:02;15.65;;;10.25;;
32876;SDS011;19226;51.600;8.034;2023-02-15T00:48:48;20.83;;;10.57;;
32876;SDS011;19226;51.600;8.034;2023-02-15T00:51:33;16.55;;;9.50;;
32876;SDS011;19226;51.600;8.034;2023-02-15T00:54:18;14.88;;;9.13;;
32876;SDS011;19226;51.600;8.034;2023-02-15T00:57:03;16.52;;;9.98;;
32876;SDS011;19226;51.600;8.034;2023-02-15T00:59:47;16.35;;;10.50;;
32876;SDS011;19226;51.600;8.034;2023-02-15T01:02:31;20.90;;;11.02;;
32876;SDS011;19226;51.600;8.034;2023-02-15T01:05:16;15.80;;;9.43;;
32876;SDS011;19226;51.600;8.034;2023-02-15T01:08:01;14.45;;;9.65;;
32876;SDS011;19226;51.600;8.034;2023-02-15T01:10:45;18.25;;;10.13;;
32876;SDS011;19226;51.600;8.034;2023-02-15T01:13:31;16.40;;;9.98;;
32876;SDS011;19226;51.600;8.034;2023-02-15T01:16:16;16.17;;;10.45;;
32876;SDS011;19226;51.600;8.034;2023-02-15T01:19:00;14.60;;;9.55;;
32876;SDS011;19226;51.600;8.034;2023-02-15T01:21:46;18.50;;;10.15;;
32876;SDS011;19226;51.600;8.034;2023-02-15T01:24:30;16.60;;;9.88;;
32876;SDS011;19226;51.600;8.034;2023-02-15T01:27:15;19.23;;;11.07;;
32876;SDS011;19226;51.600;8.034;2023-02-15T01:30:01;18.92;;;10.70;;
32876;SDS011;19226;51.600;8.034;2023-02-15T01:32:48;17.50;;;10.25;;
32876;SDS011;19226;51.600;8.034;2023-02-15T01:35:32;19.27;;;10.27;;
32876;SDS011;19226;51.600;8.034;2023-02-15T01:38:17;19.63;;;11.18;;
32876;SDS011;19226;51.600;8.034;2023-02-15T01:41:01;16.42;;;9.93;;
32876;SDS011;19226;51.600;8.034;2023-02-15T01:44:40;17.95;;;9.90;;
32876;SDS011;19226;51.600;8.034;2023-02-15T01:47:42;18.73;;;10.82;;
32876;SDS011;19226;51.600;8.034;2023-02-15T01:50:38;18.08;;;9.93;;
32876;SDS011;19226;51.600;8.034;2023-02-15T01:53:28;20.30;;;11.02;;
32876;SDS011;19226;51.600;8.034;2023-02-15T01:56:23;17.63;;;10.50;;
32876;SDS011;19226;51.600;8.034;2023-02-15T01:59:12;17.38;;;10.13;;
32876;SDS011;19226;51.600;8.034;2023-02-15T02:02:00;16.50;;;10.20;;
32876;SDS011;19226;51.600;8.034;2023-02-15T02:04:47;18.60;;;9.98;;
32876;SDS011;19226;51.600;8.034;2023-02-15T02:07:40;15.50;;;9.93;;
32876;SDS011;19226;51.600;8.034;2023-02-15T02:10:27;17.35;;;10.25;;
32876;SDS011;19226;51.600;8.034;2023-02-15T02:13:14;21.73;;;10.70;;
32876;SDS011;19226;51.600;8.034;2023-02-15T02:16:10;17.05;;;9.98;;
32876;SDS011;19226;51.600;8.034;2023-02-15T02:19:26;17.90;;;10.00;;
32876;SDS011;19226;51.600;8.034;2023-02-15T02:29:39;20.10;;;9.80;;
32876;SDS011;19226;51.600;8.034;2023-02-15T02:41:50;17.17;;;10.73;;
32876;SDS011;19226;51.600;8.034;2023-02-15T02:44:43;20.10;;;10.77;;
32876;SDS011;19226;51.600;8.034;2023-02-15T02:50:25;20.90;;;11.63;;
32876;SDS011;19226;51.600;8.034;2023-02-15T02:53:11;25.83;;;13.13;;
32876;SDS011;19226;51.600;8.034;2023-02-15T02:55:57;19.73;;;11.50;;
32876;SDS011;19226;51.600;8.034;2023-02-15T02:58:48;20.73;;;12.18;;
32876;SDS011;19226;51.600;8.034;2023-02-15T03:04:35;21.98;;;11.60;;
32876;SDS011;19226;51.600;8.034;2023-02-15T03:07:22;17.58;;;9.32;;
32876;SDS011;19226;51.600;8.034;2023-02-15T03:10:08;25.30;;;12.25;;
32876;SDS011;19226;51.600;8.034;2023-02-15T03:12:54;21.70;;;12.68;;
32876;SDS011;19226;51.600;8.034;2023-02-15T03:15:38;22.30;;;11.95;;
32876;SDS011;19226;51.600;8.034;2023-02-15T03:18:48;23.75;;;12.23;;
32876;SDS011;19226;51.600;8.034;2023-02-15T03:24:37;24.33;;;12.10;;
32876;SDS011;19226;51.600;8.034;2023-02-15T03:30:28;20.70;;;10.25;;
32876;SDS011;19226;51.600;8.034;2023-02-15T03:33:15;14.65;;;9.32;;
32876;SDS011;19226;51.600;8.034;2023-02-15T03:42:33;17.08;;;9.23;;
32876;SDS011;19226;51.600;8.034;2023-02-15T03:45:24;16.15;;;10.43;;
32876;SDS011;19226;51.600;8.034;2023-02-15T03:48:12;18.30;;;9.13;;
32876;SDS011;19226;51.600;8.034;2023-02-15T03:50:58;17.48;;;9.75;;
32876;SDS011;19226;51.600;8.034;2023-02-15T03:54:07;20.05;;;9.98;;
32876;SDS011;19226;51.600;8.034;2023-02-15T03:56:57;18.60;;;10.68;;
32876;SDS011;19226;51.600;8.034;2023-02-15T04:00:02;19.77;;;11.35;;
32876;SDS011;19226;51.600;8.034;2023-02-15T04:03:11;18.57;;;10.20;;
32876;SDS011;19226;51.600;8.034;2023-02-15T04:05:59;18.40;;;10.85;;
32876;SDS011;19226;51.600;8.034;2023-02-15T04:08:46;17.05;;;10.52;;
32876;SDS011;19226;51.600;8.034;2023-02-15T04:11:48;16.33;;;10.23;;
32876;SDS011;19226;51.600;8.034;2023-02-15T04:14:33;19.83;;;10.52;;
32876;SDS011;19226;51.600;8.034;2023-02-15T04:17:37;16.05;;;10.20;;
32876;SDS011;19226;51.600;8.034;2023-02-15T04:20:21;19.13;;;11.23;;
32876;SDS011;19226;51.600;8.034;2023-02-15T04:23:24;21.35;;;10.80;;
32876;SDS011;19226;51.600;8.034;2023-02-15T04:26:27;19.23;;;11.00;;
32876;SDS011;19226;51.600;8.034;2023-02-15T04:29:11;21.95;;;11.43;;
32876;SDS011;19226;51.600;8.034;2023-02-15T04:31:57;18.00;;;10.45;;
32876;SDS011;19226;51.600;8.034;2023-02-15T04:34:42;19.85;;;11.00;;
32876;SDS011;19226;51.600;8.034;2023-02-15T04:37:27;17.35;;;10.38;;
32876;SDS011;19226;51.600;8.034;2023-02-15T04:40:12;16.33;;;10.25;;
32876;SDS011;19226;51.600;8.034;2023-02-15T04:42:58;22.60;;;12.10;;
32876;SDS011;19226;51.600;8.034;2023-02-15T04:45:46;19.02;;;10.63;;
32876;SDS011;19226;51.600;8.034;2023-02-15T04:48:34;20.17;;;9.98;;
32876;SDS011;19226;51.600;8.034;2023-02-15T04:51:18;16.55;;;10.63;;
32876;SDS011;19226;51.600;8.034;2023-02-15T04:54:03;22.92;;;11.82;;
32876;SDS011;19226;51.600;8.034;2023-02-15T04:56:48;25.15;;;11.98;;
32876;SDS011;19226;51.600;8.034;2023-02-15T04:59:32;28.42;;;11.85;;
32876;SDS011;19226;51.600;8.034;2023-02-15T05:02:17;21.50;;;11.45;;
32876;SDS011;19226;51.600;8.034;2023-02-15T05:05:01;17.90;;;10.48;;
32876;SDS011;19226;51.600;8.034;2023-02-15T05:07:46;18.80;;;10.10;;
32876;SDS011;19226;51.600;8.034;2023-02-15T05:10:30;23.45;;;11.73;;
32876;SDS011;19226;51.600;8.034;2023-02-15T05:13:15;21.92;;;11.82;;
32876;SDS011;19226;51.600;8.034;2023-02-15T05:16:00;23.60;;;12.25;;
32876;SDS011;19226;51.600;8.034;2023-02-15T05:18:44;18.70;;;11.27;;
32876;SDS011;19226;51.600;8.034;2023-02-15T05:21:29;20.95;;;11.18;;
32876;SDS011;19226;51.600;8.034;2023-02-15T05:24:14;23.27;;;12.32;;
32876;SDS011;19226;51.600;8.034;2023-02-15T05:27:21;19.90;;;12.15;;
32876;SDS011;19226;51.600;8.034;2023-02-15T05:30:24;20.40;;;12.25;;
32876;SDS011;19226;51.600;8.034;2023-02-15T05:33:09;24.98;;;12.68;;
32876;SDS011;19226;51.600;8.034;2023-02-15T05:35:53;22.92;;;12.50;;
32876;SDS011;19226;51.600;8.034;2023-02-15T05:38:38;24.60;;;12.13;;
32876;SDS011;19226;51.600;8.034;2023-02-15T05:41:22;24.90;;;12.88;;
32876;SDS011;19226;51.600;8.034;2023-02-15T05:44:08;21.52;;;12.00;;
32876;SDS011;19226;51.600;8.034;2023-02-15T05:46:52;21.17;;;11.60;;
32876;SDS011;19226;51.600;8.034;2023-02-15T05:49:36;22.23;;;12.27;;
32876;SDS011;19226;51.600;8.034;2023-02-15T05:52:21;18.38;;;11.30;;
32876;SDS011;19226;51.600;8.034;2023-02-15T05:55:06;17.98;;;10.80;;
32876;SDS011;19226;51.600;8.034;2023-02-15T05:57:52;25.60;;;12.02;;
32876;SDS011;19226;51.600;8.034;2023-02-15T06:00:37;20.80;;;11.25;;
32876;SDS011;19226;51.600;8.034;2023-02-15T06:03:22;20.23;;;10.95;;
32876;SDS011;19226;51.600;8.034;2023-02-15T06:06:09;22.00;;;12.00;;
32876;SDS011;19226;51.600;8.034;2023-02-15T06:08:54;20.98;;;11.73;;
32876;SDS011;19226;51.600;8.034;2023-02-15T06:11:38;24.05;;;12.68;;
32876;SDS011;19226;51.600;8.034;2023-02-15T06:14:23;30.23;;;13.10;;
32876;SDS011;19226;51.600;8.034;2023-02-15T06:17:07;23.00;;;12.45;;
32876;SDS011;19226;51.600;8.034;2023-02-15T06:19:52;23.60;;;12.52;;
32876;SDS011;19226;51.600;8.034;2023-02-15T06:22:36;23.63;;;12.32;;
32876;SDS011;19226;51.600;8.034;2023-02-15T06:25:21;23.02;;;12.50;;
32876;SDS011;19226;51.600;8.034;2023-02-15T06:28:06;22.55;;;12.70;;
32876;SDS011;19226;51.600;8.034;2023-02-15T06:30:50;18.80;;;11.00;;
32876;SDS011;19226;51.600;8.034;2023-02-15T06:33:36;20.38;;;10.93;;
32876;SDS011;19226;51.600;8.034;2023-02-15T06:36:20;21.30;;;11.35;;
32876;SDS011;19226;51.600;8.034;2023-02-15T06:39:05;20.77;;;11.73;;
32876;SDS011;19226;51.600;8.034;2023-02-15T06:41:49;22.80;;;12.45;;
32876;SDS011;19226;51.600;8.034;2023-02-15T06:44:34;48.33;;;18.63;;
32876;SDS011;19226;51.600;8.034;2023-02-15T06:47:18;219.82;;;66.03;;
32876;SDS011;19226;51.600;8.034;2023-02-15T06:50:04;187.93;;;57.40;;
32876;SDS011;19226;51.600;8.034;2023-02-15T06:52:49;156.82;;;50.50;;
32876;SDS011;19226;51.600;8.034;2023-02-15T06:55:38;146.90;;;46.72;;
32876;SDS011;19226;51.600;8.034;2023-02-15T06:58:23;136.55;;;44.53;;
32876;SDS011;19226;51.600;8.034;2023-02-15T07:01:08;80.97;;;26.67;;
32876;SDS011;19226;51.600;8.034;2023-02-15T07:03:53;60.20;;;22.83;;
32876;SDS011;19226;51.600;8.034;2023-02-15T07:06:38;52.38;;;20.80;;
32876;SDS011;19226;51.600;8.034;2023-02-15T07:09:23;60.70;;;22.63;;
32876;SDS011;19226;51.600;8.034;2023-02-15T07:12:10;70.35;;;26.92;;
32876;SDS011;19226;51.600;8.034;2023-02-15T07:15:15;75.72;;;27.25;;
32876;SDS011;19226;51.600;8.034;2023-02-15T07:18:01;69.30;;;29.25;;
32876;SDS011;19226;51.600;8.034;2023-02-15T07:20:46;52.65;;;22.75;;
32876;SDS011;19226;51.600;8.034;2023-02-15T07:23:30;34.38;;;16.17;;
32876;SDS011;19226;51.600;8.034;2023-02-15T07:26:15;34.08;;;14.98;;
32876;SDS011;19226;51.600;8.034;2023-02-15T07:28:59;25.42;;;13.05;;
32876;SDS011;19226;51.600;8.034;2023-02-15T07:31:44;25.08;;;12.55;;
32876;SDS011;19226;51.600;8.034;2023-02-15T07:34:29;26.08;;;13.25;;
32876;SDS011;19226;51.600;8.034;2023-02-15T07:37:13;30.33;;;14.15;;
32876;SDS011;19226;51.600;8.034;2023-02-15T07:39:58;30.23;;;14.48;;
32876;SDS011;19226;51.600;8.034;2023-02-15T07:42:42;28.45;;;14.85;;
32876;SDS011;19226;51.600;8.034;2023-02-15T07:45:27;36.53;;;17.92;;
32876;SDS011;19226;51.600;8.034;2023-02-15T07:48:11;39.22;;;18.48;;
32876;SDS011;19226;51.600;8.034;2023-02-15T07:50:59;41.53;;;17.80;;
32876;SDS011;19226;51.600;8.034;2023-02-15T07:53:45;42.08;;;17.58;;
32876;SDS011;19226;51.600;8.034;2023-02-15T07:56:31;29.48;;;15.63;;
32876;SDS011;19226;51.600;8.034;2023-02-15T07:59:16;22.45;;;12.60;;
32876;SDS011;19226;51.600;8.034;2023-02-15T08:02:01;18.70;;;11.57;;
32876;SDS011;19226;51.600;8.034;2023-02-15T08:04:45;20.33;;;11.60;;
32876;SDS011;19226;51.600;8.034;2023-02-15T08:07:29;20.58;;;11.80;;
32876;SDS011;19226;51.600;8.034;2023-02-15T08:10:14;21.30;;;11.20;;
32876;SDS011;19226;51.600;8.034;2023-02-15T08:13:18;21.48;;;11.45;;
32876;SDS011;19226;51.600;8.034;2023-02-15T08:16:03;21.75;;;11.70;;
32876;SDS011;19226;51.600;8.034;2023-02-15T08:18:47;22.17;;;11.25;;
32876;SDS011;19226;51.600;8.034;2023-02-15T08:21:33;27.05;;;12.25;;
32876;SDS011;19226;51.600;8.034;2023-02-15T08:24:19;18.33;;;10.70;;
32876;SDS011;19226;51.600;8.034;2023-02-15T08:27:09;19.33;;;11.18;;
32876;SDS011;19226;51.600;8.034;2023-02-15T08:29:55;19.63;;;11.15;;
32876;SDS011;19226;51.600;8.034;2023-02-15T08:32:39;18.98;;;10.30;;
32876;SDS011;19226;51.600;8.034;2023-02-15T08:35:24;20.30;;;10.90;;
32876;SDS011;19226;51.600;8.034;2023-02-15T08:38:08;17.35;;;11.13;;
32876;SDS011;19226;51.600;8.034;2023-02-15T08:40:53;24.10;;;11.60;;
32876;SDS011;19226;51.600;8.034;2023-02-15T08:43:37;20.10;;;11.00;;
32876;SDS011;19226;51.600;8.034;2023-02-15T08:46:23;20.67;;;11.40;;
32876;SDS011;19226;51.600;8.034;2023-02-15T08:49:12;22.02;;;11.82;;
32876;SDS011;19226;51.600;8.034;2023-02-15T08:51:58;23.42;;;12.00;;
32876;SDS011;19226;51.600;8.034;2023-02-15T08:54:43;17.30;;;11.05;;
32876;SDS011;19226;51.600;8.034;2023-02-15T08:57:28;19.85;;;11.20;;
32876;SDS011;19226;51.600;8.034;2023-02-15T09:00:12;20.00;;;11.32;;
32876;SDS011;19226;51.600;8.034;2023-02-15T09:02:58;18.02;;;11.02;;
32876;SDS011;19226;51.600;8.034;2023-02-15T09:05:42;22.38;;;11.88;;
32876;SDS011;19226;51.600;8.034;2023-02-15T09:08:27;23.17;;;11.57;;
32876;SDS011;19226;51.600;8.034;2023-02-15T09:11:14;17.73;;;11.57;;
32876;SDS011;19226;51.600;8.034;2023-02-15T09:14:19;18.17;;;10.73;;
32876;SDS011;19226;51.600;8.034;2023-02-15T09:17:05;18.08;;;11.38;;
32876;SDS011;19226;51.600;8.034;2023-02-15T09:19:49;29.52;;;11.32;;
32876;SDS011;19226;51.600;8.034;2023-02-15T09:22:34;21.50;;;11.60;;
32876;SDS011;19226;51.600;8.034;2023-02-15T09:25:19;21.20;;;11.68;;
32876;SDS011;19226;51.600;8.034;2023-02-15T09:28:03;18.48;;;11.02;;
32876;SDS011;19226;51.600;8.034;2023-02-15T09:30:48;24.05;;;11.85;;
32876;SDS011;19226;51.600;8.034;2023-02-15T09:33:33;15.27;;;10.30;;
32876;SDS011;19226;51.600;8.034;2023-02-15T09:36:20;18.85;;;11.70;;
32876;SDS011;19226;51.600;8.034;2023-02-15T09:39:14;25.42;;;11.50;;
32876;SDS011;19226;51.600;8.034;2023-02-15T09:42:09;21.70;;;12.05;;
32876;SDS011;19226;51.600;8.034;2023-02-15T09:51:41;21.23;;;12.32;;
32876;SDS011;19226;51.600;8.034;2023-02-15T09:57:50;18.60;;;10.82;;
32876;SDS011;19226;51.600;8.034;2023-02-15T10:00:52;17.77;;;10.85;;
32876;SDS011;19226;51.600;8.034;2023-02-15T10:25:26;19.67;;;10.75;;
32876;SDS011;19226;51.600;8.034;2023-02-15T10:28:06;22.17;;;10.80;;
32876;SDS011;19226;51.600;8.034;2023-02-15T10:31:07;21.98;;;10.70;;
32876;SDS011;19226;51.600;8.034;2023-02-15T10:34:08;20.38;;;10.95;;
32876;SDS011;19226;51.600;8.034;2023-02-15T10:40:55;16.67;;;10.00;;
32876;SDS011;19226;51.600;8.034;2023-02-15T10:46:58;17.42;;;10.80;;
32876;SDS011;19226;51.600;8.034;2023-02-15T10:49:55;18.10;;;10.23;;
32876;SDS011;19226;51.600;8.034;2023-02-15T10:59:07;16.67;;;10.25;;
32876;SDS011;19226;51.600;8.034;2023-02-15T11:02:23;19.33;;;10.30;;
32876;SDS011;19226;51.600;8.034;2023-02-15T11:08:53;16.25;;;10.10;;
32876;SDS011;19226;51.600;8.034;2023-02-15T11:11:44;15.25;;;10.23;;
32876;SDS011;19226;51.600;8.034;2023-02-15T11:17:41;16.60;;;10.05;;
32876;SDS011;19226;51.600;8.034;2023-02-15T11:20:43;17.48;;;10.23;;
32876;SDS011;19226;51.600;8.034;2023-02-15T11:23:35;16.98;;;9.98;;
32876;SDS011;19226;51.600;8.034;2023-02-15T11:29:52;17.08;;;10.45;;
32876;SDS011;19226;51.600;8.034;2023-02-15T11:32:44;22.30;;;11.10;;
32876;SDS011;19226;51.600;8.034;2023-02-15T11:35:36;17.67;;;10.07;;
32876;SDS011;19226;51.600;8.034;2023-02-15T11:38:28;17.30;;;10.20;;
32876;SDS011;19226;51.600;8.034;2023-02-15T11:41:19;20.13;;;11.52;;
32876;SDS011;19226;51.600;8.034;2023-02-15T11:44:14;16.88;;;10.30;;
32876;SDS011;19226;51.600;8.034;2023-02-15T11:47:01;20.80;;;10.48;;
32876;SDS011;19226;51.600;8.034;2023-02-15T11:49:48;16.40;;;10.30;;
32876;SDS011;19226;51.600;8.034;2023-02-15T11:52:32;17.83;;;10.45;;
32876;SDS011;19226;51.600;8.034;2023-02-15T11:55:21;14.48;;;9.70;;
32876;SDS011;19226;51.600;8.034;2023-02-15T11:58:16;19.38;;;10.30;;
32876;SDS011;19226;51.600;8.034;2023-02-15T12:04:24;15.93;;;10.38;;
32876;SDS011;19226;51.600;8.034;2023-02-15T12:07:16;20.35;;;10.65;;
32876;SDS011;19226;51.600;8.034;2023-02-15T12:13:08;19.50;;;10.30;;
32876;SDS011;19226;51.600;8.034;2023-02-15T12:15:58;13.38;;;9.90;;
32876;SDS011;19226;51.600;8.034;2023-02-15T12:18:52;15.32;;;9.75;;
32876;SDS011;19226;51.600;8.034;2023-02-15T12:21:39;20.73;;;9.57;;
32876;SDS011;19226;51.600;8.034;2023-02-15T12:24:29;17.90;;;9.70;;
32876;SDS011;19226;51.600;8.034;2023-02-15T12:27:17;17.08;;;10.00;;
32876;SDS011;19226;51.600;8.034;2023-02-15T12:30:06;16.48;;;10.18;;
32876;SDS011;19226;51.600;8.034;2023-02-15T12:33:45;25.50;;;10.55;;
32876;SDS011;19226;51.600;8.034;2023-02-15T12:36:30;16.33;;;10.35;;
32876;SDS011;19226;51.600;8.034;2023-02-15T12:42:15;16.95;;;10.25;;
32876;SDS011;19226;51.600;8.034;2023-02-15T12:47:46;13.80;;;9.32;;
32876;SDS011;19226;51.600;8.034;2023-02-15T12:50:53;16.20;;;10.00;;
32876;SDS011;19226;51.600;8.034;2023-02-15T12:56:36;14.02;;;9.25;;
32876;SDS011;19226;51.600;8.034;2023-02-15T12:59:21;17.40;;;10.05;;
32876;SDS011;19226;51.600;8.034;2023-02-15T13:02:06;20.40;;;11.00;;
32876;SDS011;19226;51.600;8.034;2023-02-15T13:05:04;18.02;;;10.52;;
32876;SDS011;19226;51.600;8.034;2023-02-15T13:11:13;17.38;;;10.18;;
32876;SDS011;19226;51.600;8.034;2023-02-15T13:14:04;16.20;;;9.98;;
32876;SDS011;19226;51.600;8.034;2023-02-15T13:17:20;14.82;;;9.35;;
32876;SDS011;19226;51.600;8.034;2023-02-15T13:20:16;16.33;;;10.50;;
32876;SDS011;19226;51.600;8.034;2023-02-15T13:23:06;21.23;;;10.20;;
32876;SDS011;19226;51.600;8.034;2023-02-15T13:26:09;18.13;;;10.43;;
32876;SDS011;19226;51.600;8.034;2023-02-15T13:29:01;23.85;;;10.88;;
32876;SDS011;19226;51.600;8.034;2023-02-15T13:31:52;17.70;;;9.90;;
32876;SDS011;19226;51.600;8.034;2023-02-15T13:34:39;17.45;;;10.73;;
32876;SDS011;19226;51.600;8.034;2023-02-15T13:37:37;18.85;;;10.70;;
32876;SDS011;19226;51.600;8.034;2023-02-15T13:50:18;16.50;;;10.05;;
32876;SDS011;19226;51.600;8.034;2023-02-15T13:53:10;17.58;;;10.30;;
32876;SDS011;19226;51.600;8.034;2023-02-15T13:56:02;16.95;;;10.30;;
32876;SDS011;19226;51.600;8.034;2023-02-15T14:11:21;15.82;;;10.05;;
32876;SDS011;19226;51.600;8.034;2023-02-15T14:14:30;20.08;;;11.23;;
32876;SDS011;19226;51.600;8.034;2023-02-15T14:20:22;16.15;;;9.98;;
32876;SDS011;19226;51.600;8.034;2023-02-15T14:30:13;22.47;;;11.07;;
32876;SDS011;19226;51.600;8.034;2023-02-15T14:33:05;22.25;;;11.63;;
32876;SDS011;19226;51.600;8.034;2023-02-15T14:36:00;19.55;;;9.77;;
32876;SDS011;19226;51.600;8.034;2023-02-15T14:41:49;16.35;;;10.60;;
32876;SDS011;19226;51.600;8.034;2023-02-15T14:44:45;16.80;;;9.60;;
32876;SDS011;19226;51.600;8.034;2023-02-15T14:47:42;16.33;;;10.10;;
32876;SDS011;19226;51.600;8.034;2023-02-15T14:53:32;18.55;;;9.68;;
32876;SDS011;19226;51.600;8.034;2023-02-15T14:56:20;20.67;;;10.43;;
32876;SDS011;19226;51.600;8.034;2023-02-15T15:01:58;16.13;;;10.25;;
32876;SDS011;19226;51.600;8.034;2023-02-15T15:05:13;16.75;;;10.60;;
32876;SDS011;19226;51.600;8.034;2023-02-15T15:08:03;16.67;;;9.77;;
32876;SDS011;19226;51.600;8.034;2023-02-15T15:10:49;16.08;;;10.25;;
32876;SDS011;19226;51.600;8.034;2023-02-15T15:13:35;16.38;;;10.30;;
32876;SDS011;19226;51.600;8.034;2023-02-15T15:16:46;15.18;;;9.20;;
32876;SDS011;19226;51.600;8.034;2023-02-15T15:22:41;18.63;;;10.33;;
32876;SDS011;19226;51.600;8.034;2023-02-15T15:38:01;24.40;;;10.80;;
32876;SDS011;19226;51.600;8.034;2023-02-15T15:51:14;15.75;;;10.52;;
32876;SDS011;19226;51.600;8.034;2023-02-15T15:54:16;19.27;;;10.02;;
32876;SDS011;19226;51.600;8.034;2023-02-15T15:57:05;20.10;;;10.85;;
32876;SDS011;19226;51.600;8.034;2023-02-15T16:03:15;21.58;;;10.52;;
32876;SDS011;19226;51.600;8.034;2023-02-15T16:06:13;14.15;;;10.07;;
32876;SDS011;19226;51.600;8.034;2023-02-15T16:09:09;15.25;;;9.85;;
32876;SDS011;19226;51.600;8.034;2023-02-15T16:12:02;19.58;;;10.70;;
32876;SDS011;19226;51.600;8.034;2023-02-15T16:14:49;18.90;;;10.38;;
32876;SDS011;19226;51.600;8.034;2023-02-15T16:17:35;19.35;;;12.02;;
32876;SDS011;19226;51.600;8.034;2023-02-15T16:20:24;22.67;;;12.57;;
32876;SDS011;19226;51.600;8.034;2023-02-15T16:29:15;27.95;;;13.25;;
32876;SDS011;19226;51.600;8.034;2023-02-15T16:32:03;26.20;;;12.40;;
32876;SDS011;19226;51.600;8.034;2023-02-15T16:35:12;26.05;;;11.48;;
32876;SDS011;19226;51.600;8.034;2023-02-15T16:37:59;21.55;;;11.40;;
32876;SDS011;19226;51.600;8.034;2023-02-15T16:40:53;23.10;;;13.75;;
32876;SDS011;19226;51.600;8.034;2023-02-15T16:43:42;31.52;;;18.35;;
32876;SDS011;19226;51.600;8.034;2023-02-15T16:46:33;52.75;;;25.30;;
32876;SDS011;19226;51.600;8.034;2023-02-15T16:49:27;53.55;;;23.98;;
32876;SDS011;19226;51.600;8.034;2023-02-15T16:52:15;51.40;;;25.02;;
32876;SDS011;19226;51.600;8.034;2023-02-15T16:55:04;55.80;;;24.33;;
32876;SDS011;19226;51.600;8.034;2023-02-15T16:57:50;76.35;;;31.15;;
32876;SDS011;19226;51.600;8.034;2023-02-15T17:00:38;62.63;;;27.15;;
32876;SDS011;19226;51.600;8.034;2023-02-15T17:03:25;53.55;;;23.85;;
32876;SDS011;19226;51.600;8.034;2023-02-15T17:06:23;56.90;;;24.95;;
32876;SDS011;19226;51.600;8.034;2023-02-15T17:09:14;47.60;;;23.13;;
32876;SDS011;19226;51.600;8.034;2023-02-15T17:12:08;49.15;;;24.08;;
32876;SDS011;19226;51.600;8.034;2023-02-15T17:14:54;45.13;;;22.92;;
32876;SDS011;19226;51.600;8.034;2023-02-15T17:17:39;45.95;;;20.65;;
32876;SDS011;19226;51.600;8.034;2023-02-15T17:20:25;42.70;;;18.92;;
32876;SDS011;19226;51.600;8.034;2023-02-15T17:23:22;30.40;;;15.68;;
32876;SDS011;19226;51.600;8.034;2023-02-15T17:29:11;35.03;;;18.15;;
32876;SDS011;19226;51.600;8.034;2023-02-15T17:32:22;76.15;;;31.52;;
32876;SDS011;19226;51.600;8.034;2023-02-15T17:35:30;74.95;;;31.05;;
32876;SDS011;19226;51.600;8.034;2023-02-15T17:38:18;28.67;;;14.75;;
32876;SDS011;19226;51.600;8.034;2023-02-15T17:41:03;23.50;;;13.77;;
32876;SDS011;19226;51.600;8.034;2023-02-15T17:43:48;27.20;;;14.85;;
32876;SDS011;19226;51.600;8.034;2023-02-15T17:46:33;31.83;;;16.80;;
32876;SDS011;19226;51.600;8.034;2023-02-15T17:49:24;23.53;;;13.70;;
32876;SDS011;19226;51.600;8.034;2023-02-15T17:52:17;22.50;;;12.18;;
32876;SDS011;19226;51.600;8.034;2023-02-15T17:55:04;21.48;;;11.95;;
32876;SDS011;19226;51.600;8.034;2023-02-15T17:58:16;24.60;;;13.18;;
32876;SDS011;19226;51.600;8.034;2023-02-15T18:01:13;19.65;;;12.32;;
32876;SDS011;19226;51.600;8.034;2023-02-15T18:04:21;20.90;;;11.93;;
32876;SDS011;19226;51.600;8.034;2023-02-15T18:07:24;22.83;;;10.73;;
32876;SDS011;19226;51.600;8.034;2023-02-15T18:10:28;16.63;;;9.73;;
32876;SDS011;19226;51.600;8.034;2023-02-15T18:13:30;21.98;;;10.68;;
32876;SDS011;19226;51.600;8.034;2023-02-15T18:16:17;20.80;;;10.48;;
32876;SDS011;19226;51.600;8.034;2023-02-15T18:19:05;36.10;;;18.25;;
32876;SDS011;19226;51.600;8.034;2023-02-15T18:21:56;24.80;;;13.75;;
32876;SDS011;19226;51.600;8.034;2023-02-15T18:24:41;23.15;;;12.23;;
32876;SDS011;19226;51.600;8.034;2023-02-15T18:27:26;18.23;;;9.38;;
32876;SDS011;19226;51.600;8.034;2023-02-15T18:30:15;19.05;;;10.25;;
32876;SDS011;19226;51.600;8.034;2023-02-15T18:33:02;15.90;;;9.70;;
32876;SDS011;19226;51.600;8.034;2023-02-15T18:35:46;22.35;;;9.68;;
32876;SDS011;19226;51.600;8.034;2023-02-15T18:38:33;17.08;;;9.48;;
32876;SDS011;19226;51.600;8.034;2023-02-15T18:41:19;19.58;;;9.57;;
32876;SDS011;19226;51.600;8.034;2023-02-15T18:44:10;19.08;;;10.90;;
32876;SDS011;19226;51.600;8.034;2023-02-15T18:46:55;26.60;;;12.52;;
32876;SDS011;19226;51.600;8.034;2023-02-15T18:49:39;24.38;;;11.68;;
32876;SDS011;19226;51.600;8.034;2023-02-15T18:52:25;34.03;;;10.88;;
32876;SDS011;19226;51.600;8.034;2023-02-15T18:58:08;43.67;;;19.17;;
32876;SDS011;19226;51.600;8.034;2023-02-15T19:01:02;40.97;;;20.67;;
32876;SDS011;19226;51.600;8.034;2023-02-15T19:03:49;40.50;;;21.05;;
32876;SDS011;19226;51.600;8.034;2023-02-15T19:06:34;34.13;;;19.17;;
32876;SDS011;19226;51.600;8.034;2023-02-15T19:09:23;23.15;;;13.32;;
32876;SDS011;19226;51.600;8.034;2023-02-15T19:12:09;24.50;;;11.00;;
32876;SDS011;19226;51.600;8.034;2023-02-15T19:14:56;23.33;;;11.82;;
32876;SDS011;19226;51.600;8.034;2023-02-15T19:17:40;23.83;;;11.68;;
32876;SDS011;19226;51.600;8.034;2023-02-15T19:20:27;21.63;;;10.75;;
32876;SDS011;19226;51.600;8.034;2023-02-15T19:23:16;17.25;;;9.60;;
32876;SDS011;19226;51.600;8.034;2023-02-15T19:26:03;23.77;;;10.55;;
32876;SDS011;19226;51.600;8.034;2023-02-15T19:28:48;19.50;;;10.80;;
32876;SDS011;19226;51.600;8.034;2023-02-15T19:31:33;18.00;;;9.27;;
32876;SDS011;19226;51.600;8.034;2023-02-15T19:34:18;21.98;;;11.40;;
32876;SDS011;19226;51.600;8.034;2023-02-15T19:37:03;23.27;;;10.50;;
32876;SDS011;19226;51.600;8.034;2023-02-15T19:39:49;25.77;;;11.98;;
32876;SDS011;19226;51.600;8.034;2023-02-15T19:42:33;18.75;;;10.93;;
32876;SDS011;19226;51.600;8.034;2023-02-15T19:45:19;20.23;;;11.45;;